sensor_id;sensor_type;location;lat;lon;timestamp;pressure;altitude;pressure_sealevel;temperature
13497;BMP180;6820;49.374;8.452;2023-07-13T00:02:52;100449.47;;;29.06
13497;BMP180;6820;49.374;8.452;2023-07-13T00:06:57;100449.59;;;28.95
13497;BMP180;6820;49.374;8.452;2023-07-13T00:11:00;100453.19;;;28.81
13497;BMP180;6820;49.374;8.452;2023-07-13T00:15:06;100478.50;;;28.75
13497;BMP180;6820;49.374;8.452;2023-07-13T00:19:08;100475.09;;;28.68
13497;BMP180;6820;49.374;8.452;2023-07-13T00:23:10;100465.66;;;28.54
13497;BMP180;6820;49.374;8.452;2023-07-13T00:27:12;100470.06;;;28.50
13497;BMP180;6820;49.374;8.452;2023-07-13T00:31:13;100464.00;;;28.41
13497;BMP180;6820;49.374;8.452;2023-07-13T00:35:18;100462.41;;;28.25
13497;BMP180;6820;49.374;8.452;2023-07-13T00:39:20;100465.13;;;28.14
13497;BMP180;6820;49.374;8.452;2023-07-13T00:43:23;100477.38;;;28.01
13497;BMP180;6820;49.374;8.452;2023-07-13T00:47:25;100477.53;;;27.81
13497;BMP180;6820;49.374;8.452;2023-07-13T00:51:34;100476.81;;;27.51
13497;BMP180;6820;49.374;8.452;2023-07-13T00:55:39;100483.84;;;27.28
13497;BMP180;6820;49.374;8.452;2023-07-13T00:59:45;100478.66;;;27.21
13497;BMP180;6820;49.374;8.452;2023-07-13T01:03:47;100470.88;;;27.19
13497;BMP180;6820;49.374;8.452;2023-07-13T01:07:51;100473.44;;;27.25
13497;BMP180;6820;49.374;8.452;2023-07-13T01:11:53;100476.06;;;27.18
13497;BMP180;6820;49.374;8.452;2023-07-13T01:16:12;100471.75;;;27.15
13497;BMP180;6820;49.374;8.452;2023-07-13T01:20:15;100482.16;;;27.17
13497;BMP180;6820;49.374;8.452;2023-07-13T01:24:17;100487.38;;;27.17
13497;BMP180;6820;49.374;8.452;2023-07-13T01:28:19;100486.47;;;27.18
13497;BMP180;6820;49.374;8.452;2023-07-13T01:32:23;100483.84;;;27.23
13497;BMP180;6820;49.374;8.452;2023-07-13T01:36:28;100489.09;;;27.18
13497;BMP180;6820;49.374;8.452;2023-07-13T01:40:30;100500.38;;;27.12
13497;BMP180;6820;49.374;8.452;2023-07-13T01:44:32;100485.69;;;26.98
13497;BMP180;6820;49.374;8.452;2023-07-13T01:48:33;100484.84;;;26.90
13497;BMP180;6820;49.374;8.452;2023-07-13T01:52:35;100501.34;;;26.83
13497;BMP180;6820;49.374;8.452;2023-07-13T01:56:37;100505.66;;;26.81
13497;BMP180;6820;49.374;8.452;2023-07-13T02:00:39;100507.41;;;26.69
13497;BMP180;6820;49.374;8.452;2023-07-13T02:04:40;100512.59;;;26.57
13497;BMP180;6820;49.374;8.452;2023-07-13T02:08:42;100503.97;;;26.55
13497;BMP180;6820;49.374;8.452;2023-07-13T02:12:44;100504.81;;;26.51
13497;BMP180;6820;49.374;8.452;2023-07-13T02:16:46;100510.03;;;26.63
13497;BMP180;6820;49.374;8.452;2023-07-13T02:20:49;100507.41;;;26.73
13497;BMP180;6820;49.374;8.452;2023-07-13T02:24:51;100509.16;;;26.74
13497;BMP180;6820;49.374;8.452;2023-07-13T02:28:53;100511.72;;;26.64
13497;BMP180;6820;49.374;8.452;2023-07-13T02:32:56;100511.75;;;26.48
13497;BMP180;6820;49.374;8.452;2023-07-13T02:36:58;100508.28;;;26.35
13497;BMP180;6820;49.374;8.452;2023-07-13T02:41:00;100520.44;;;26.20
13497;BMP180;6820;49.374;8.452;2023-07-13T02:45:03;100508.22;;;26.12
13497;BMP180;6820;49.374;8.452;2023-07-13T02:49:05;100522.16;;;26.18
13497;BMP180;6820;49.374;8.452;2023-07-13T02:53:06;100514.34;;;26.17
13497;BMP180;6820;49.374;8.452;2023-07-13T02:57:08;100512.63;;;26.20
13497;BMP180;6820;49.374;8.452;2023-07-13T03:01:10;100517.81;;;26.22
13497;BMP180;6820;49.374;8.452;2023-07-13T03:05:13;100518.66;;;26.22
13497;BMP180;6820;49.374;8.452;2023-07-13T03:09:17;100521.28;;;26.24
13497;BMP180;6820;49.374;8.452;2023-07-13T03:13:24;100517.81;;;26.25
13497;BMP180;6820;49.374;8.452;2023-07-13T03:17:26;100524.75;;;26.27
13497;BMP180;6820;49.374;8.452;2023-07-13T03:21:28;100533.41;;;26.31
13497;BMP180;6820;49.374;8.452;2023-07-13T03:25:30;100526.47;;;26.28
13497;BMP180;6820;49.374;8.452;2023-07-13T03:29:34;100530.81;;;26.19
13497;BMP180;6820;49.374;8.452;2023-07-13T03:33:37;100529.94;;;26.17
13497;BMP180;6820;49.374;8.452;2023-07-13T03:37:39;100532.53;;;26.21
13497;BMP180;6820;49.374;8.452;2023-07-13T03:41:48;100532.53;;;26.24
13497;BMP180;6820;49.374;8.452;2023-07-13T03:45:51;100536.88;;;26.27
13497;BMP180;6820;49.374;8.452;2023-07-13T03:49:53;100546.41;;;26.29
13497;BMP180;6820;49.374;8.452;2023-07-13T03:53:55;100542.06;;;26.28
13497;BMP180;6820;49.374;8.452;2023-07-13T03:58:00;100542.94;;;26.26
13497;BMP180;6820;49.374;8.452;2023-07-13T04:02:02;100550.72;;;26.23
13497;BMP180;6820;49.374;8.452;2023-07-13T04:06:13;100550.72;;;26.20
13497;BMP180;6820;49.374;8.452;2023-07-13T04:10:16;100547.28;;;26.21
13497;BMP180;6820;49.374;8.452;2023-07-13T04:14:18;100549.88;;;26.24
13497;BMP180;6820;49.374;8.452;2023-07-13T04:18:21;100556.81;;;26.26
13497;BMP180;6820;49.374;8.452;2023-07-13T04:22:23;100557.66;;;26.25
13497;BMP180;6820;49.374;8.452;2023-07-13T04:26:25;100562.84;;;26.25
13497;BMP180;6820;49.374;8.452;2023-07-13T04:30:26;100572.38;;;26.25
13497;BMP180;6820;49.374;8.452;2023-07-13T04:34:28;100562.00;;;26.26
13497;BMP180;6820;49.374;8.452;2023-07-13T04:38:31;100566.31;;;26.27
13497;BMP180;6820;49.374;8.452;2023-07-13T04:42:34;100576.72;;;26.26
13497;BMP180;6820;49.374;8.452;2023-07-13T04:46:35;100574.13;;;26.27
13497;BMP180;6820;49.374;8.452;2023-07-13T04:50:39;100580.16;;;26.22
13497;BMP180;6820;49.374;8.452;2023-07-13T04:54:41;100587.09;;;26.24
13497;BMP180;6820;49.374;8.452;2023-07-13T04:58:43;100573.25;;;26.27
13497;BMP180;6820;49.374;8.452;2023-07-13T05:02:45;100574.13;;;26.24
13497;BMP180;6820;49.374;8.452;2023-07-13T05:06:47;100580.16;;;26.19
13497;BMP180;6820;49.374;8.452;2023-07-13T05:10:50;100578.38;;;26.09
13497;BMP180;6820;49.374;8.452;2023-07-13T05:14:52;100589.63;;;26.06
13497;BMP180;6820;49.374;8.452;2023-07-13T05:18:53;100587.03;;;26.03
13497;BMP180;6820;49.374;8.452;2023-07-13T05:22:56;100606.94;;;25.97
13497;BMP180;6820;49.374;8.452;2023-07-13T05:26:58;100605.94;;;25.69
13497;BMP180;6820;49.374;8.452;2023-07-13T05:30:59;100611.88;;;25.44
13497;BMP180;6820;49.374;8.452;2023-07-13T05:35:01;100605.78;;;25.39
13497;BMP180;6820;49.374;8.452;2023-07-13T05:39:04;100604.06;;;25.44
13497;BMP180;6820;49.374;8.452;2023-07-13T05:43:06;100609.34;;;25.59
13497;BMP180;6820;49.374;8.452;2023-07-13T05:47:12;100610.31;;;25.72
13497;BMP180;6820;49.374;8.452;2023-07-13T05:51:15;100618.16;;;25.96
13497;BMP180;6820;49.374;8.452;2023-07-13T05:55:17;100632.91;;;26.00
13497;BMP180;6820;49.374;8.452;2023-07-13T05:59:19;100640.72;;;26.03
13497;BMP180;6820;49.374;8.452;2023-07-13T06:03:21;100638.13;;;26.03
13497;BMP180;6820;49.374;8.452;2023-07-13T06:07:22;100642.53;;;26.19
13497;BMP180;6820;49.374;8.452;2023-07-13T06:11:26;100639.09;;;26.30
13497;BMP180;6820;49.374;8.452;2023-07-13T06:15:28;100652.09;;;26.40
13497;BMP180;6820;49.374;8.452;2023-07-13T06:19:30;100654.72;;;26.46
13497;BMP180;6820;49.374;8.452;2023-07-13T06:23:32;100672.94;;;26.61
13497;BMP180;6820;49.374;8.452;2023-07-13T06:27:34;100664.34;;;26.74
13497;BMP180;6820;49.374;8.452;2023-07-13T06:31:35;100675.59;;;26.83
13497;BMP180;6820;49.374;8.452;2023-07-13T06:35:37;100673.84;;;26.78
13497;BMP180;6820;49.374;8.452;2023-07-13T06:39:39;100677.34;;;26.90
13497;BMP180;6820;49.374;8.452;2023-07-13T06:43:40;100673.88;;;26.98
13497;BMP180;6820;49.374;8.452;2023-07-13T06:47:42;100676.50;;;27.03
13497;BMP180;6820;49.374;8.452;2023-07-13T06:51:44;100680.81;;;27.14
13497;BMP180;6820;49.374;8.452;2023-07-13T06:55:46;100685.97;;;27.29
13497;BMP180;6820;49.374;8.452;2023-07-13T06:59:48;100685.13;;;27.42
13497;BMP180;6820;49.374;8.452;2023-07-13T07:03:50;100692.94;;;27.45
13497;BMP180;6820;49.374;8.452;2023-07-13T07:07:53;100680.78;;;27.54
13497;BMP180;6820;49.374;8.452;2023-07-13T07:11:55;100677.28;;;27.65
13497;BMP180;6820;49.374;8.452;2023-07-13T07:16:05;100684.19;;;27.69
13497;BMP180;6820;49.374;8.452;2023-07-13T07:20:07;100687.69;;;27.70
13497;BMP180;6820;49.374;8.452;2023-07-13T07:24:08;100688.53;;;27.69
13497;BMP180;6820;49.374;8.452;2023-07-13T07:28:11;100692.00;;;27.77
13497;BMP180;6820;49.374;8.452;2023-07-13T07:32:16;100691.97;;;27.91
13497;BMP180;6820;49.374;8.452;2023-07-13T07:36:37;100685.88;;;28.03
13497;BMP180;6820;49.374;8.452;2023-07-13T07:40:42;100691.03;;;28.17
13497;BMP180;6820;49.374;8.452;2023-07-13T07:44:47;100686.59;;;28.31
13497;BMP180;6820;49.374;8.452;2023-07-13T07:48:48;100684.81;;;28.38
13497;BMP180;6820;49.374;8.452;2023-07-13T07:52:50;100690.84;;;28.53
13497;BMP180;6820;49.374;8.452;2023-07-13T07:56:52;100696.84;;;28.68
13497;BMP180;6820;49.374;8.452;2023-07-13T08:01:05;100694.97;;;28.85
13497;BMP180;6820;49.374;8.452;2023-07-13T08:05:10;100692.31;;;28.92
13497;BMP180;6820;49.374;8.452;2023-07-13T08:09:15;100690.47;;;29.02
13497;BMP180;6820;49.374;8.452;2023-07-13T08:13:17;100690.38;;;29.18
13497;BMP180;6820;49.374;8.452;2023-07-13T08:17:20;100690.25;;;29.31
13497;BMP180;6820;49.374;8.452;2023-07-13T08:21:22;100692.66;;;29.50
13497;BMP180;6820;49.374;8.452;2023-07-13T08:25:24;100682.06;;;29.70
13497;BMP180;6820;49.374;8.452;2023-07-13T08:29:25;100685.38;;;29.83
13497;BMP180;6820;49.374;8.452;2023-07-13T08:33:27;100682.69;;;29.91
13497;BMP180;6820;49.374;8.452;2023-07-13T08:37:29;100687.78;;;30.00
13497;BMP180;6820;49.374;8.452;2023-07-13T08:41:30;100677.16;;;30.13
13497;BMP180;6820;49.374;8.452;2023-07-13T08:45:43;100679.41;;;30.41
13497;BMP180;6820;49.374;8.452;2023-07-13T08:49:46;100674.66;;;30.71
13497;BMP180;6820;49.374;8.452;2023-07-13T08:53:50;100672.22;;;31.10
13497;BMP180;6820;49.374;8.452;2023-07-13T08:58:10;100660.56;;;31.28
13497;BMP180;6820;49.374;8.452;2023-07-13T09:06:55;100674.97;;;31.04
13497;BMP180;6820;49.374;8.452;2023-07-13T09:15:40;100659.31;;;30.99
13497;BMP180;6820;49.374;8.452;2023-07-13T09:19:49;100658.41;;;31.02
13497;BMP180;6820;49.374;8.452;2023-07-13T09:23:58;100664.50;;;31.04
13497;BMP180;6820;49.374;8.452;2023-07-13T09:28:22;100659.00;;;31.17
13497;BMP180;6820;49.374;8.452;2023-07-13T09:32:26;100661.63;;;31.65
13497;BMP180;6820;49.374;8.452;2023-07-13T09:36:29;100656.75;;;32.32
13497;BMP180;6820;49.374;8.452;2023-07-13T09:40:59;100653.47;;;32.60
13497;BMP180;6820;49.374;8.452;2023-07-13T09:45:04;100659.13;;;32.44
13497;BMP180;6820;49.374;8.452;2023-07-13T09:49:10;100653.44;;;32.23
13497;BMP180;6820;49.374;8.452;2023-07-13T09:53:14;100659.00;;;32.08
13497;BMP180;6820;49.374;8.452;2023-07-13T09:57:19;100656.72;;;31.93
13497;BMP180;6820;49.374;8.452;2023-07-13T10:05:42;100652.41;;;31.91
13497;BMP180;6820;49.374;8.452;2023-07-13T10:09:44;100648.53;;;32.08
13497;BMP180;6820;49.374;8.452;2023-07-13T10:13:53;100654.97;;;32.33
13497;BMP180;6820;49.374;8.452;2023-07-13T10:17:57;100655.81;;;32.36
13497;BMP180;6820;49.374;8.452;2023-07-13T10:26:17;100652.88;;;32.50
13497;BMP180;6820;49.374;8.452;2023-07-13T10:30:24;100635.28;;;32.89
13497;BMP180;6820;49.374;8.452;2023-07-13T10:34:29;100642.28;;;32.90
13497;BMP180;6820;49.374;8.452;2023-07-13T10:38:32;100640.59;;;32.86
13497;BMP180;6820;49.374;8.452;2023-07-13T10:42:40;100646.22;;;32.71
13497;BMP180;6820;49.374;8.452;2023-07-13T10:46:43;100635.06;;;32.62
13497;BMP180;6820;49.374;8.452;2023-07-13T10:50:49;100641.78;;;32.75
13497;BMP180;6820;49.374;8.452;2023-07-13T10:54:51;100640.00;;;32.75
13497;BMP180;6820;49.374;8.452;2023-07-13T10:59:12;100643.38;;;32.82
13497;BMP180;6820;49.374;8.452;2023-07-13T11:03:19;100644.59;;;32.66
13497;BMP180;6820;49.374;8.452;2023-07-13T11:07:28;100650.97;;;32.54
13497;BMP180;6820;49.374;8.452;2023-07-13T11:11:36;100650.78;;;32.63
13497;BMP180;6820;49.374;8.452;2023-07-13T11:15:44;100650.53;;;32.74
13497;BMP180;6820;49.374;8.452;2023-07-13T11:19:51;100653.56;;;32.92
13497;BMP180;6820;49.374;8.452;2023-07-13T11:24:14;100641.47;;;32.86
13497;BMP180;6820;49.374;8.452;2023-07-13T11:28:23;100644.25;;;32.81
13497;BMP180;6820;49.374;8.452;2023-07-13T11:32:30;100634.19;;;32.61
13497;BMP180;6820;49.374;8.452;2023-07-13T11:36:38;100629.78;;;32.63
13497;BMP180;6820;49.374;8.452;2023-07-13T11:40:46;100624.94;;;32.83
13497;BMP180;6820;49.374;8.452;2023-07-13T11:44:55;100614.16;;;32.93
13497;BMP180;6820;49.374;8.452;2023-07-13T11:49:15;100605.91;;;33.40
13497;BMP180;6820;49.374;8.452;2023-07-13T11:53:17;100614.59;;;33.43
13497;BMP180;6820;49.374;8.452;2023-07-13T11:57:29;100618.00;;;33.46
13497;BMP180;6820;49.374;8.452;2023-07-13T12:01:36;100628.50;;;33.48
13497;BMP180;6820;49.374;8.452;2023-07-13T12:06:03;100622.97;;;33.57
13497;BMP180;6820;49.374;8.452;2023-07-13T12:14:18;100615.09;;;33.25
13497;BMP180;6820;49.374;8.452;2023-07-13T12:18:22;100618.09;;;33.42
13497;BMP180;6820;49.374;8.452;2023-07-13T12:22:25;100612.66;;;34.09
13497;BMP180;6820;49.374;8.452;2023-07-13T12:26:26;100605.97;;;34.54
13497;BMP180;6820;49.374;8.452;2023-07-13T12:30:32;100588.59;;;35.01
13497;BMP180;6820;49.374;8.452;2023-07-13T12:34:54;100606.97;;;35.28
13497;BMP180;6820;49.374;8.452;2023-07-13T12:39:00;100604.25;;;35.05
13497;BMP180;6820;49.374;8.452;2023-07-13T12:43:11;100624.72;;;34.72
13497;BMP180;6820;49.374;8.452;2023-07-13T12:47:14;100615.66;;;34.26
13497;BMP180;6820;49.374;8.452;2023-07-13T12:51:21;100631.09;;;34.08
13497;BMP180;6820;49.374;8.452;2023-07-13T12:55:23;100631.13;;;34.37
13497;BMP180;6820;49.374;8.452;2023-07-13T12:59:30;100641.75;;;34.34
13497;BMP180;6820;49.374;8.452;2023-07-13T13:03:39;100635.88;;;34.51
13497;BMP180;6820;49.374;8.452;2023-07-13T13:07:42;100625.78;;;34.65
13497;BMP180;6820;49.374;8.452;2023-07-13T13:11:47;100634.31;;;34.73
13497;BMP180;6820;49.374;8.452;2023-07-13T13:15:49;100632.06;;;34.88
13497;BMP180;6820;49.374;8.452;2023-07-13T13:19:51;100622.34;;;34.90
13497;BMP180;6820;49.374;8.452;2023-07-13T13:23:55;100639.00;;;34.64
13497;BMP180;6820;49.374;8.452;2023-07-13T13:27:57;100638.63;;;34.48
13497;BMP180;6820;49.374;8.452;2023-07-13T13:31:59;100631.75;;;34.44
13497;BMP180;6820;49.374;8.452;2023-07-13T13:36:01;100639.47;;;34.49
13497;BMP180;6820;49.374;8.452;2023-07-13T13:40:13;100636.72;;;34.80
13497;BMP180;6820;49.374;8.452;2023-07-13T13:44:16;100625.28;;;34.81
13497;BMP180;6820;49.374;8.452;2023-07-13T13:48:20;100624.88;;;34.66
13497;BMP180;6820;49.374;8.452;2023-07-13T13:52:24;100619.25;;;34.78
13497;BMP180;6820;49.374;8.452;2023-07-13T13:56:26;100627.00;;;34.82
13497;BMP180;6820;49.374;8.452;2023-07-13T14:00:28;100631.13;;;34.89
13497;BMP180;6820;49.374;8.452;2023-07-13T14:04:30;100625.09;;;34.87
13497;BMP180;6820;49.374;8.452;2023-07-13T14:08:32;100622.19;;;34.95
13497;BMP180;6820;49.374;8.452;2023-07-13T14:12:34;100625.28;;;34.81
13497;BMP180;6820;49.374;8.452;2023-07-13T14:16:35;100626.03;;;34.58
13497;BMP180;6820;49.374;8.452;2023-07-13T14:20:37;100625.69;;;34.41
13497;BMP180;6820;49.374;8.452;2023-07-13T14:24:39;100632.06;;;34.34
13497;BMP180;6820;49.374;8.452;2023-07-13T14:28:43;100642.00;;;34.25
13497;BMP180;6820;49.374;8.452;2023-07-13T14:32:46;100641.19;;;33.94
13497;BMP180;6820;49.374;8.452;2023-07-13T14:36:48;100639.78;;;33.81
13497;BMP180;6820;49.374;8.452;2023-07-13T14:40:51;100636.78;;;33.95
13497;BMP180;6820;49.374;8.452;2023-07-13T14:44:53;100636.88;;;33.92
13497;BMP180;6820;49.374;8.452;2023-07-13T14:49:05;100625.41;;;33.94
13497;BMP180;6820;49.374;8.452;2023-07-13T14:53:10;100651.50;;;34.00
13497;BMP180;6820;49.374;8.452;2023-07-13T14:57:13;100633.13;;;34.29
13497;BMP180;6820;49.374;8.452;2023-07-13T15:01:16;100636.28;;;34.67
13497;BMP180;6820;49.374;8.452;2023-07-13T15:05:24;100629.22;;;34.69
13497;BMP180;6820;49.374;8.452;2023-07-13T15:09:27;100625.16;;;34.57
13497;BMP180;6820;49.374;8.452;2023-07-13T15:13:30;100613.53;;;34.64
13497;BMP180;6820;49.374;8.452;2023-07-13T15:17:38;100618.88;;;34.88
13497;BMP180;6820;49.374;8.452;2023-07-13T15:21:40;100616.38;;;34.58
13497;BMP180;6820;49.374;8.452;2023-07-13T15:25:44;100622.53;;;34.30
13497;BMP180;6820;49.374;8.452;2023-07-13T15:29:46;100621.78;;;34.27
13497;BMP180;6820;49.374;8.452;2023-07-13T15:33:52;100623.06;;;34.41
13497;BMP180;6820;49.374;8.452;2023-07-13T15:37:55;100612.50;;;34.69
13497;BMP180;6820;49.374;8.452;2023-07-13T15:41:56;100604.63;;;34.95
13497;BMP180;6820;49.374;8.452;2023-07-13T15:45:58;100608.75;;;35.02
13497;BMP180;6820;49.374;8.452;2023-07-13T15:50:00;100605.44;;;35.21
13497;BMP180;6820;49.374;8.452;2023-07-13T15:54:03;100597.25;;;35.77
13497;BMP180;6820;49.374;8.452;2023-07-13T15:58:11;100601.00;;;36.17
13497;BMP180;6820;49.374;8.452;2023-07-13T16:02:17;100600.16;;;36.37
13497;BMP180;6820;49.374;8.452;2023-07-13T16:06:24;100592.19;;;36.39
13497;BMP180;6820;49.374;8.452;2023-07-13T16:10:33;100590.09;;;35.80
13497;BMP180;6820;49.374;8.452;2023-07-13T16:14:35;100590.44;;;35.71
13497;BMP180;6820;49.374;8.452;2023-07-13T16:18:37;100601.13;;;35.91
13497;BMP180;6820;49.374;8.452;2023-07-13T16:22:41;100589.41;;;36.21
13497;BMP180;6820;49.374;8.452;2023-07-13T16:26:43;100590.69;;;36.32
13497;BMP180;6820;49.374;8.452;2023-07-13T16:30:47;100596.16;;;36.27
13497;BMP180;6820;49.374;8.452;2023-07-13T16:34:49;100589.56;;;36.16
13497;BMP180;6820;49.374;8.452;2023-07-13T16:38:51;100588.63;;;35.49
13497;BMP180;6820;49.374;8.452;2023-07-13T16:42:55;100593.53;;;35.58
13497;BMP180;6820;49.374;8.452;2023-07-13T16:46:58;100605.59;;;35.89
13497;BMP180;6820;49.374;8.452;2023-07-13T16:51:02;100609.31;;;35.60
13497;BMP180;6820;49.374;8.452;2023-07-13T16:55:10;100607.72;;;35.31
13497;BMP180;6820;49.374;8.452;2023-07-13T16:59:14;100599.31;;;35.45
13497;BMP180;6820;49.374;8.452;2023-07-13T17:03:16;100592.31;;;35.68
13497;BMP180;6820;49.374;8.452;2023-07-13T17:07:19;100596.06;;;35.63
13497;BMP180;6820;49.374;8.452;2023-07-13T17:11:25;100602.66;;;35.50
13497;BMP180;6820;49.374;8.452;2023-07-13T17:15:29;100591.13;;;35.52
13497;BMP180;6820;49.374;8.452;2023-07-13T17:19:32;100593.53;;;35.35
13497;BMP180;6820;49.374;8.452;2023-07-13T17:23:35;100600.34;;;35.17
13497;BMP180;6820;49.374;8.452;2023-07-13T17:27:40;100603.22;;;35.09
13497;BMP180;6820;49.374;8.452;2023-07-13T17:31:42;100611.19;;;34.82
13497;BMP180;6820;49.374;8.452;2023-07-13T17:35:44;100617.44;;;34.53
13497;BMP180;6820;49.374;8.452;2023-07-13T17:39:46;100613.44;;;34.11
13497;BMP180;6820;49.374;8.452;2023-07-13T17:43:48;100617.16;;;33.76
13497;BMP180;6820;49.374;8.452;2023-07-13T17:47:50;100614.16;;;33.58
13497;BMP180;6820;49.374;8.452;2023-07-13T17:51:54;100622.72;;;33.34
13497;BMP180;6820;49.374;8.452;2023-07-13T17:55:57;100621.53;;;33.13
13497;BMP180;6820;49.374;8.452;2023-07-13T17:59:59;100628.13;;;32.95
13497;BMP180;6820;49.374;8.452;2023-07-13T18:04:00;100638.97;;;32.82
13497;BMP180;6820;49.374;8.452;2023-07-13T18:08:11;100627.78;;;32.73
13497;BMP180;6820;49.374;8.452;2023-07-13T18:12:18;100635.97;;;32.59
13497;BMP180;6820;49.374;8.452;2023-07-13T18:16:26;100634.59;;;32.44
13497;BMP180;6820;49.374;8.452;2023-07-13T18:20:29;100645.50;;;32.27
13497;BMP180;6820;49.374;8.452;2023-07-13T18:24:30;100643.13;;;32.16
13497;BMP180;6820;49.374;8.452;2023-07-13T18:28:32;100632.06;;;32.02
13497;BMP180;6820;49.374;8.452;2023-07-13T18:32:35;100635.59;;;31.99
13497;BMP180;6820;49.374;8.452;2023-07-13T18:36:37;100641.00;;;31.93
13497;BMP180;6820;49.374;8.452;2023-07-13T18:40:40;100648.84;;;31.93
13497;BMP180;6820;49.374;8.452;2023-07-13T18:44:42;100648.00;;;31.91
13497;BMP180;6820;49.374;8.452;2023-07-13T18:48:44;100654.34;;;31.82
13497;BMP180;6820;49.374;8.452;2023-07-13T18:52:48;100658.78;;;31.77
13497;BMP180;6820;49.374;8.452;2023-07-13T18:56:50;100660.72;;;31.67
13497;BMP180;6820;49.374;8.452;2023-07-13T19:00:52;100656.53;;;31.58
13497;BMP180;6820;49.374;8.452;2023-07-13T19:04:59;100655.81;;;31.51
13497;BMP180;6820;49.374;8.452;2023-07-13T19:09:01;100655.88;;;31.45
13497;BMP180;6820;49.374;8.452;2023-07-13T19:13:03;100654.22;;;31.41
13497;BMP180;6820;49.374;8.452;2023-07-13T19:17:09;100657.94;;;31.30
13497;BMP180;6820;49.374;8.452;2023-07-13T19:21:23;100659.94;;;31.15
13497;BMP180;6820;49.374;8.452;2023-07-13T19:25:27;100667.84;;;31.10
13497;BMP180;6820;49.374;8.452;2023-07-13T19:29:30;100676.72;;;31.02
13497;BMP180;6820;49.374;8.452;2023-07-13T19:33:31;100674.34;;;30.90
13497;BMP180;6820;49.374;8.452;2023-07-13T19:37:34;100678.78;;;30.84
13497;BMP180;6820;49.374;8.452;2023-07-13T19:41:39;100687.63;;;30.77
13497;BMP180;6820;49.374;8.452;2023-07-13T19:45:41;100697.31;;;30.72
13497;BMP180;6820;49.374;8.452;2023-07-13T19:49:43;100709.59;;;30.64
13497;BMP180;6820;49.374;8.452;2023-07-13T19:53:46;100704.50;;;30.54
13497;BMP180;6820;49.374;8.452;2023-07-13T19:57:49;100722.94;;;30.46
13497;BMP180;6820;49.374;8.452;2023-07-13T20:01:50;100724.78;;;30.40
13497;BMP180;6820;49.374;8.452;2023-07-13T20:05:52;100726.66;;;30.28
13497;BMP180;6820;49.374;8.452;2023-07-13T20:09:54;100726.78;;;30.20
13497;BMP180;6820;49.374;8.452;2023-07-13T20:13:56;100732.03;;;30.17
13497;BMP180;6820;49.374;8.452;2023-07-13T20:17:59;100726.81;;;30.16
13497;BMP180;6820;49.374;8.452;2023-07-13T20:22:04;100733.81;;;30.11
13497;BMP180;6820;49.374;8.452;2023-07-13T20:26:07;100735.66;;;30.04
13497;BMP180;6820;49.374;8.452;2023-07-13T20:30:09;100746.97;;;30.03
13497;BMP180;6820;49.374;8.452;2023-07-13T20:34:35;100743.50;;;30.03
13497;BMP180;6820;49.374;8.452;2023-07-13T20:38:38;100741.72;;;30.09
13497;BMP180;6820;49.374;8.452;2023-07-13T20:42:40;100740.78;;;30.16
13497;BMP180;6820;49.374;8.452;2023-07-13T20:46:41;100737.25;;;30.19
13497;BMP180;6820;49.374;8.452;2023-07-13T20:50:44;100737.25;;;30.16
13497;BMP180;6820;49.374;8.452;2023-07-13T20:54:47;100739.88;;;30.14
13497;BMP180;6820;49.374;8.452;2023-07-13T20:58:49;100747.81;;;30.10
13497;BMP180;6820;49.374;8.452;2023-07-13T21:03:00;100746.94;;;30.06
13497;BMP180;6820;49.374;8.452;2023-07-13T21:07:02;100739.19;;;30.02
13497;BMP180;6820;49.374;8.452;2023-07-13T21:11:04;100740.94;;;30.00
13497;BMP180;6820;49.374;8.452;2023-07-13T21:15:08;100746.19;;;29.97
13497;BMP180;6820;49.374;8.452;2023-07-13T21:19:12;100746.19;;;29.96
13497;BMP180;6820;49.374;8.452;2023-07-13T21:23:34;100750.53;;;29.98
13497;BMP180;6820;49.374;8.452;2023-07-13T21:27:36;100751.41;;;30.00
13497;BMP180;6820;49.374;8.452;2023-07-13T21:31:38;100760.97;;;30.01
13497;BMP180;6820;49.374;8.452;2023-07-13T21:35:40;100760.97;;;30.01
13497;BMP180;6820;49.374;8.452;2023-07-13T21:39:48;100767.94;;;30.01
13497;BMP180;6820;49.374;8.452;2023-07-13T21:43:50;100760.09;;;30.01
13497;BMP180;6820;49.374;8.452;2023-07-13T21:47:53;100766.22;;;30.00
13497;BMP180;6820;49.374;8.452;2023-07-13T21:51:55;100764.53;;;29.94
13497;BMP180;6820;49.374;8.452;2023-07-13T21:55:59;100777.72;;;29.84
13497;BMP180;6820;49.374;8.452;2023-07-13T22:00:01;100770.00;;;29.71
13497;BMP180;6820;49.374;8.452;2023-07-13T22:04:17;100773.50;;;29.68
13497;BMP180;6820;49.374;8.452;2023-07-13T22:08:35;100767.47;;;29.65
13497;BMP180;6820;49.374;8.452;2023-07-13T22:12:37;100759.66;;;29.57
13497;BMP180;6820;49.374;8.452;2023-07-13T22:16:39;100772.72;;;29.56
13497;BMP180;6820;49.374;8.452;2023-07-13T22:20:41;100771.84;;;29.55
13497;BMP180;6820;49.374;8.452;2023-07-13T22:24:43;100768.41;;;29.50
13497;BMP180;6820;49.374;8.452;2023-07-13T22:28:46;100770.19;;;29.48
13497;BMP180;6820;49.374;8.452;2023-07-13T22:32:48;100767.63;;;29.44
13497;BMP180;6820;49.374;8.452;2023-07-13T22:36:50;100772.88;;;29.41
13497;BMP180;6820;49.374;8.452;2023-07-13T22:40:51;100773.75;;;29.39
13497;BMP180;6820;49.374;8.452;2023-07-13T22:44:54;100762.50;;;29.32
13497;BMP180;6820;49.374;8.452;2023-07-13T22:49:11;100776.47;;;29.30
13497;BMP180;6820;49.374;8.452;2023-07-13T22:53:17;100772.13;;;29.26
13497;BMP180;6820;49.374;8.452;2023-07-13T22:57:18;100773.00;;;29.23
13497;BMP180;6820;49.374;8.452;2023-07-13T23:01:23;100772.13;;;29.23
13497;BMP180;6820;49.374;8.452;2023-07-13T23:05:28;100773.06;;;29.17
13497;BMP180;6820;49.374;8.452;2023-07-13T23:09:31;100771.34;;;29.12
13497;BMP180;6820;49.374;8.452;2023-07-13T23:13:33;100772.28;;;29.07
13497;BMP180;6820;49.374;8.452;2023-07-13T23:17:36;100768.78;;;29.03
13497;BMP180;6820;49.374;8.452;2023-07-13T23:21:37;100763.59;;;29.00
13497;BMP180;6820;49.374;8.452;2023-07-13T23:25:40;100761.91;;;28.95
13497;BMP180;6820;49.374;8.452;2023-07-13T23:29:42;100767.16;;;28.87
13497;BMP180;6820;49.374;8.452;2023-07-13T23:33:43;100755.91;;;28.79
13497;BMP180;6820;49.374;8.452;2023-07-13T23:37:46;100753.31;;;28.77
13497;BMP180;6820;49.374;8.452;2023-07-13T23:41:50;100756.81;;;28.73
13497;BMP180;6820;49.374;8.452;2023-07-13T23:45:52;100749.88;;;28.67
13497;BMP180;6820;49.374;8.452;2023-07-13T23:49:53;100749.91;;;28.64